D/T METAR WX W/DIR W/SPE G/SPE TEMP DEWP
25/02/20 14:20 EGSS 251420Z AUTO 24012KT 9999 FEW034/// SCT042/// //////TCU 07/01 Q0997 WSW (240°) 13.8mph 7°C 1°C
25/02/20 13:50 EGSS 251350Z AUTO 25011KT 230V290 9999 SCT040 08/00 Q0997 WSW (250°) 12.7mph 8°C 0°C
25/02/20 13:20 EGSS 251320Z AUTO 25011KT 9999 SCT036 SCT045 07/00 Q0998 WSW (250°) 12.7mph 7°C 0°C
25/02/20 12:20 EGSS 251220Z AUTO 26011KT 9999 SCT033 07/01 Q0999 W (260°) 12.7mph 7°C 1°C
25/02/20 11:50 EGSS 251150Z AUTO 25013KT 9999 FEW032 07/01 Q0999 WSW (250°) 15.0mph 7°C 1°C
25/02/20 11:20 EGSS 251120Z AUTO 25013KT 9999 FEW030 07/01 Q0999 WSW (250°) 15.0mph 7°C 1°C
25/02/20 10:50 EGSS 251050Z AUTO 25013KT 9999 BKN029 07/01 Q0999 WSW (250°) 15.0mph 7°C 1°C
25/02/20 10:20 EGSS 251020Z AUTO 25014KT 9999 SCT025 SCT031 07/01 Q0999 WSW (250°) 16.1mph 7°C 1°C
25/02/20 09:50 EGSS 250950Z AUTO 25012KT 9999 BKN019 BKN025 06/02 Q1000 WSW (250°) 13.8mph 6°C 2°C
25/02/20 09:20 EGSS 250920Z AUTO 24013KT 9999 BKN015 06/03 Q1000 WSW (240°) 15.0mph 6°C 3°C
25/02/20 08:50 EGSS 250850Z AUTO 23012KT 9999 FEW026 05/03 Q1000 SW (230°) 13.8mph 5°C 3°C
25/02/20 08:20 EGSS 250820Z AUTO 23012KT 9999 NCD 04/02 Q1001 SW (230°) 13.8mph 4°C 2°C
25/02/20 07:50 EGSS 250750Z AUTO 22013KT 9999 NCD 04/02 Q1001 SW (220°) 15.0mph 4°C 2°C
25/02/20 07:20 EGSS 250720Z AUTO 22013KT 9999 NCD 03/01 Q1001 SW (220°) 15.0mph 3°C 1°C
25/02/20 06:50 EGSS 250650Z AUTO 23010KT 9999 NCD 02/01 Q1001 SW (230°) 11.5mph 2°C 1°C
25/02/20 06:20 EGSS 250620Z AUTO 23011KT 9999 NCD 03/01 Q1002 SW (230°) 12.7mph 3°C 1°C
25/02/20 05:50 EGSS 250550Z AUTO 23009KT 9999 NCD 03/01 Q1002 SW (230°) 10.4mph 3°C 1°C
25/02/20 05:20 EGSS 250520Z AUTO 24008KT 9999 NCD 04/01 Q1002 WSW (240°) 9.2mph 4°C 1°C
25/02/20 04:50 EGSS 250450Z AUTO 25009KT 9999 NCD 04/01 Q1003 WSW (250°) 10.4mph 4°C 1°C
25/02/20 04:20 EGSS 250420Z AUTO 25008KT 9999 NCD 04/02 Q1003 WSW (250°) 9.2mph 4°C 2°C
25/02/20 03:50 EGSS 250350Z AUTO 25008KT 9999 NCD 04/02 Q1003 WSW (250°) 9.2mph 4°C 2°C
25/02/20 03:20 EGSS 250320Z AUTO 25009KT 9999 BKN020 05/02 Q1003 WSW (250°) 10.4mph 5°C 2°C
25/02/20 02:50 EGSS 250250Z AUTO 26007KT 9999 SCT018 05/03 Q1003 W (260°) 8.1mph 5°C 3°C
25/02/20 02:20 EGSS 250220Z AUTO 24009KT 9999 NCD 05/02 Q1003 WSW (240°) 10.4mph 5°C 2°C
25/02/20 01:50 EGSS 250150Z AUTO 25010KT 9999 NCD 05/02 Q1003 WSW (250°) 11.5mph 5°C 2°C
25/02/20 01:20 EGSS 250120Z AUTO 24009KT 9999 NCD 05/02 Q1003 WSW (240°) 10.4mph 5°C 2°C
25/02/20 00:50 EGSS 250050Z AUTO 24007KT 9999 SCT049 05/01 Q1003 WSW (240°) 8.1mph 5°C 1°C
25/02/20 00:20 EGSS 250020Z AUTO 24008KT 9999 NCD 06/01 Q1004 WSW (240°) 9.2mph 6°C 1°C
24/02/20 23:50 EGSS 242350Z AUTO 25009KT 9999 NCD 06/01 Q1004 WSW (250°) 10.4mph 6°C 1°C
24/02/20 23:20 EGSS 242320Z AUTO 26010KT 9999 NCD 07/01 Q1004 W (260°) 11.5mph 7°C 1°C
24/02/20 22:50 EGSS 242250Z AUTO 26009KT 9999 NCD 07/01 Q1004 W (260°) 10.4mph 7°C 1°C
24/02/20 22:20 EGSS 242220Z AUTO 26009KT 9999 NCD 07/01 Q1004 W (260°) 10.4mph 7°C 1°C
24/02/20 21:50 EGSS 242150Z AUTO 27012KT 9999 NCD 07/02 Q1004 W (270°) 13.8mph 7°C 2°C
24/02/20 20:50 EGSS 242050Z AUTO 28012KT 9999 SCT021 BKN028 09/05 Q1004 W (280°) 13.8mph 9°C 5°C
24/02/20 20:20 EGSS 242020Z AUTO 25015KT 9999 BKN018 OVC042 09/06 Q1003 WSW (250°) 17.3mph 9°C 6°C
24/02/20 19:50 EGSS 241950Z AUTO 25014KT 9999 SCT022 BKN026 BKN033 09/06 Q1003 WSW (250°) 16.1mph 9°C 6°C
24/02/20 19:20 EGSS 241920Z AUTO 24015KT 9999 NCD 10/06 Q1003 WSW (240°) 17.3mph 10°C 6°C
24/02/20 18:50 EGSS 241850Z AUTO 24017KT 9999 NCD 10/06 Q1002 WSW (240°) 19.6mph 10°C 6°C
24/02/20 18:20 EGSS 241820Z AUTO 25019KT 9999 FEW026 10/06 Q1002 WSW (250°) 21.9mph 10°C 6°C
24/02/20 17:20 EGSS 241720Z AUTO 25015G25KT 9999 -RA BKN014 OVC032 11/09 Q1002 -RA WSW (250°) 17.3mph 28.8mph 11°C 9°C
24/02/20 16:50 EGSS 241650Z AUTO 24018KT 9999 -RA BKN014 OVC030 11/09 Q1002 -RA WSW (240°) 20.7mph 11°C 9°C
24/02/20 16:20 EGSS 241620Z AUTO 24018KT 9999 BKN013 OVC023 11/09 Q1002 WSW (240°) 20.7mph 11°C 9°C
24/02/20 15:50 EGSS 241550Z 24018KT 9999 BKN013 OVC020 11/09 Q1002 WSW (240°) 20.7mph 11°C 9°C
24/02/20 15:20 EGSS 241520Z AUTO 23019G30KT 9999 BKN011 OVC016 11/09 Q1003 SW (230°) 21.9mph 34.5mph 11°C 9°C
24/02/20 14:50 EGSS 241450Z AUTO 23022KT 9999 OVC011 11/09 Q1002 SW (230°) 25.3mph 11°C 9°C
24/02/20 14:20 EGSS 241420Z AUTO 23022KT 9999 OVC010 11/09 Q1003 SW (230°) 25.3mph 11°C 9°C
24/02/20 13:50 EGSS 241350Z AUTO 23020KT 9999 OVC010 11/09 Q1004 SW (230°) 23.0mph 11°C 9°C
24/02/20 13:20 EGSS 241320Z AUTO 22022KT 9999 -RA BKN009 OVC018 10/09 Q1003 -RA SW (220°) 25.3mph 10°C 9°C